Terminal Aerodrome Forecast
Issued by NWS

Home | Current Version | Previous Version | Text Only | Print | Product List | Glossary On
Versions: 1 2 3 4 5 6 7 8 9 10 11 12 13 14 15 16 17 18 19 20 21 22 23 24 25 26 27 28 29 30 31 32 33 34
000
FTUS43 KDVN 250115 AAA
TAFBRL
TAF AMD
KBRL 250115Z 2501/2524 20008KT 1SM -RA OVC003 WS020/15045KT
      TEMPO 2501/2503 VRB04KT 1/4SM -DZ FG VV002
     FM250300 23010KT 2SM -RA OVC003
     FM250400 25012KT 5SM BR OVC015
     FM250600 26015G24KT P6SM BKN025
     FM250900 27016G26KT P6SM SCT030 SCT250=

USA.gov is the U.S. government's official web portal to all federal, state and local government web resources and services.